createdAt,value
2023-03-13T00:00:31.922Z,100691.80
2023-03-13T00:01:32.412Z,100690.95
2023-03-13T00:02:33.146Z,100690.31
2023-03-13T00:03:33.593Z,100688.84
2023-03-13T00:04:34.196Z,100687.02
2023-03-13T00:05:34.514Z,100686.39
2023-03-13T00:06:35.518Z,100685.45
2023-03-13T00:07:36.240Z,100684.39
2023-03-13T00:07:45.596Z,100678.70
2023-03-13T00:08:46.103Z,100668.14
2023-03-13T00:09:46.580Z,100667.38
2023-03-13T00:10:47.099Z,100666.37
2023-03-13T00:11:47.947Z,100665.53
2023-03-13T00:12:48.384Z,100665.02
2023-03-13T00:13:48.464Z,100664.09
2023-03-13T00:14:49.061Z,100662.78
2023-03-13T00:15:49.801Z,100661.85
2023-03-13T00:16:50.318Z,100660.93
2023-03-13T00:17:50.697Z,100659.70
2023-03-13T00:18:51.096Z,100659.06
2023-03-13T00:19:51.562Z,100657.77
2023-03-13T00:20:52.135Z,100656.21
2023-03-13T00:21:52.671Z,100655.24
2023-03-13T00:22:52.990Z,100654.02
2023-03-13T00:23:53.741Z,100653.01
2023-03-13T00:24:54.227Z,100650.82
2023-03-13T00:25:54.786Z,100649.18
2023-03-13T00:26:55.243Z,100647.92
2023-03-13T00:27:55.697Z,100646.48
2023-03-13T00:28:56.182Z,100645.34
2023-03-13T00:29:56.514Z,100643.79
2023-03-13T00:30:57.118Z,100642.06
2023-03-13T00:31:57.718Z,100640.50
2023-03-13T00:32:58.167Z,100638.61
2023-03-13T00:33:58.666Z,100637.05
2023-03-13T00:34:59.144Z,100635.36
2023-03-13T00:35:59.661Z,100633.92
2023-03-13T00:37:00.092Z,100633.34
2023-03-13T00:38:00.628Z,100631.48
2023-03-13T00:39:01.172Z,100629.36
2023-03-13T00:40:01.585Z,100627.20
2023-03-13T00:40:10.229Z,100612.91
2023-03-13T00:41:10.892Z,100597.75
2023-03-13T00:42:11.417Z,100597.66
2023-03-13T00:43:11.903Z,100597.45
2023-03-13T00:44:12.471Z,100597.20
2023-03-13T00:45:13.145Z,100596.94
2023-03-13T00:46:13.721Z,100597.07
2023-03-13T00:47:14.131Z,100596.48
2023-03-13T00:48:14.271Z,100596.48
2023-03-13T00:49:14.876Z,100595.64
2023-03-13T00:50:15.245Z,100595.47
2023-03-13T00:51:15.694Z,100594.13
2023-03-13T00:52:16.302Z,100593.36
2023-03-13T00:53:16.989Z,100592.00
2023-03-13T00:54:17.536Z,100590.91
2023-03-13T00:55:18.283Z,100589.17
2023-03-13T00:56:18.518Z,100587.70
2023-03-13T00:57:18.781Z,100586.01
2023-03-13T00:58:19.072Z,100583.64
2023-03-13T00:59:19.236Z,100581.19
2023-03-13T01:00:19.577Z,100579.63
2023-03-13T01:01:20.019Z,100577.55
2023-03-13T01:02:20.446Z,100575.61
2023-03-13T01:03:21.006Z,100573.66
2023-03-13T01:04:21.003Z,100571.84
2023-03-13T01:05:21.111Z,100569.69
2023-03-13T01:06:21.188Z,100567.73
2023-03-13T01:07:21.710Z,100565.41
2023-03-13T01:08:22.225Z,100563.04
2023-03-13T01:09:22.637Z,100560.80
2023-03-13T01:10:22.934Z,100558.72
2023-03-13T01:11:23.616Z,100556.52
2023-03-13T01:12:23.931Z,100554.78
2023-03-13T01:12:32.617Z,100533.93
2023-03-13T01:13:32.579Z,100519.84
2023-03-13T01:14:32.787Z,100519.95
2023-03-13T01:15:33.217Z,100519.63
2023-03-13T01:16:33.526Z,100519.03
2023-03-13T01:17:33.979Z,100518.19
2023-03-13T01:18:34.289Z,100517.68
2023-03-13T01:19:34.852Z,100517.00
2023-03-13T01:20:35.061Z,100516.83
2023-03-13T01:21:35.481Z,100515.74
2023-03-13T01:22:35.743Z,100514.09
2023-03-13T01:23:35.961Z,100512.75
2023-03-13T01:24:36.247Z,100511.36
2023-03-13T01:25:36.565Z,100510.14
2023-03-13T01:26:37.046Z,100509.08
2023-03-13T01:27:37.355Z,100508.53
2023-03-13T01:28:37.730Z,100507.23
2023-03-13T01:29:38.304Z,100506.48
2023-03-13T01:30:38.897Z,100504.38
2023-03-13T01:31:39.570Z,100502.78
2023-03-13T01:32:40.196Z,100501.31
2023-03-13T01:33:40.557Z,100499.33
2023-03-13T01:34:40.976Z,100497.89
2023-03-13T01:35:41.553Z,100495.75
2023-03-13T01:36:42.059Z,100493.60
2023-03-13T01:37:42.150Z,100491.63
2023-03-13T01:38:42.633Z,100489.23
2023-03-13T01:39:43.079Z,100487.34
2023-03-13T01:40:43.634Z,100485.57
2023-03-13T01:41:44.290Z,100483.88
2023-03-13T01:42:44.788Z,100482.02
2023-03-13T01:43:45.158Z,100479.91
2023-03-13T01:44:45.669Z,100478.01
2023-03-13T01:44:54.314Z,100470.28
2023-03-13T01:45:55.230Z,100458.92
2023-03-13T01:46:55.787Z,100457.57
2023-03-13T01:47:56.463Z,100457.45
2023-03-13T01:48:56.879Z,100456.59
2023-03-13T01:49:57.458Z,100454.36
2023-03-13T01:50:58.291Z,100452.16
2023-03-13T01:51:58.931Z,100449.98
2023-03-13T01:52:59.223Z,100447.98
2023-03-13T01:53:59.640Z,100445.32
2023-03-13T01:55:00.298Z,100442.99
2023-03-13T01:56:01.051Z,100440.76
2023-03-13T01:57:01.645Z,100438.38
2023-03-13T01:58:02.185Z,100436.81
2023-03-13T01:59:02.684Z,100435.16
2023-03-13T02:00:03.151Z,100432.83
2023-03-13T02:01:03.356Z,100431.51
2023-03-13T02:02:04.262Z,100429.94
2023-03-13T02:03:04.606Z,100428.78
2023-03-13T02:04:05.096Z,100427.01
2023-03-13T02:05:05.560Z,100425.44
2023-03-13T02:06:06.304Z,100423.06
2023-03-13T02:07:06.853Z,100421.48
2023-03-13T02:08:07.422Z,100420.00
2023-03-13T02:09:08.340Z,100418.27
2023-03-13T02:10:09.112Z,100416.91
2023-03-13T02:11:09.482Z,100414.80
2023-03-13T02:12:09.959Z,100413.06
2023-03-13T02:13:10.526Z,100411.03
2023-03-13T02:14:10.897Z,100408.66
2023-03-13T02:15:11.366Z,100406.21
2023-03-13T02:16:11.950Z,100403.75
2023-03-13T02:17:12.373Z,100401.42
2023-03-13T02:17:21.017Z,100374.77
2023-03-13T02:18:21.651Z,100357.96
2023-03-13T02:19:21.790Z,100357.64
2023-03-13T02:20:22.450Z,100357.59
2023-03-13T02:21:22.834Z,100358.28
2023-03-13T02:22:23.367Z,100358.03
2023-03-13T02:23:24.123Z,100357.98
2023-03-13T02:24:24.722Z,100357.86
2023-03-13T02:25:25.493Z,100356.84
2023-03-13T02:26:26.430Z,100356.25
2023-03-13T02:27:26.986Z,100355.74
2023-03-13T02:28:27.411Z,100354.81
2023-03-13T02:29:27.987Z,100354.27
2023-03-13T02:30:28.488Z,100353.51
2023-03-13T02:31:29.321Z,100352.16
2023-03-13T02:32:29.855Z,100351.44
2023-03-13T02:33:30.306Z,100349.77
2023-03-13T02:34:31.053Z,100348.11
2023-03-13T02:35:31.401Z,100346.44
2023-03-13T02:36:31.825Z,100344.53
2023-03-13T02:37:32.240Z,100342.55
